CDT,Max TemperatureF,Mean TemperatureF,Min TemperatureF,Max Dew PointF,MeanDew PointF,Min DewpointF,Max Humidity, Mean Humidity, Min Humidity, Max Sea Level PressureIn, Mean Sea Level PressureIn, Min Sea Level PressureIn, Max VisibilityMiles, Mean VisibilityMiles, Min VisibilityMiles, Max Wind SpeedMPH, Mean Wind SpeedMPH, Max Gust SpeedMPH,PrecipitationIn, CloudCover, Events, WindDirDegrees
2012-10-1,72,62,51,46,40,35,63,48,31,29.95,29.89,29.82,10,10,10,16,7,21,0.00,1,,333
2012-10-2,72,54,37,43,37,34,89,55,28,29.98,29.91,29.84,10,10,10,10,3,,0.00,0,,166
2012-10-3,78,60,42,44,39,31,92,51,21,29.91,29.87,29.82,10,10,9,15,3,20,0.00,0,,153
2012-10-4,64,54,42,43,33,28,73,56,38,30.15,29.97,29.73,10,10,9,25,17,39,0.00,6,,257
2012-10-5,46,39,34,30,26,24,73,58,45,30.16,30.14,30.11,10,10,10,24,16,33,0.00,5,,285
2012-10-6,44,36,28,29,25,19,82,64,38,30.30,30.22,30.13,10,10,10,16,11,23,0.00,7,,321
2012-10-7,53,38,23,27,21,15,85,51,23,30.23,30.08,29.88,10,10,10,15,5,23,0.00,0,,195
2012-10-8,63,50,36,39,30,23,66,49,31,29.86,29.72,29.59,10,10,10,17,8,24,0.00,4,Rain,196
2012-10-9,51,44,37,39,32,24,86,62,41,29.99,29.82,29.72,10,9,2,18,8,28,0.05,6,Rain,273
2012-10-10,54,40,30,27,25,23,79,53,33,30.10,30.02,29.82,10,10,10,15,8,22,0.00,4,,248
2012-10-11,55,42,28,33,24,11,77,49,22,30.42,30.12,29.80,10,10,10,16,10,23,0.00,3,,330
2012-10-12,53,38,23,24,17,10,85,47,19,30.47,30.32,30.06,10,10,10,16,4,25,0.00,1,,153
2012-10-13,53,50,48,52,45,25,100,84,39,30.00,29.78,29.68,10,5,1,14,7,18,0.03,8,Rain,134
2012-10-14,59,51,43,46,40,31,97,74,35,29.88,29.78,29.73,10,9,4,16,9,25,0.00,6,,346
2012-10-15,62,48,35,39,35,31,89,57,38,29.96,29.88,29.72,10,10,10,13,5,,0.00,2,,172
2012-10-16,66,56,46,48,44,40,93,63,48,29.70,29.50,29.37,10,10,7,14,6,,0.00,2,,154
2012-10-17,62,54,45,49,44,39,93,73,53,29.34,29.23,29.12,10,9,6,24,7,30,0.00,6,,223
2012-10-18,50,46,43,43,41,39,97,85,71,29.38,29.24,29.17,10,9,2,10,5,,0.00,8,Rain,260
2012-10-19,52,46,39,47,43,34,100,88,59,29.73,29.57,29.41,10,8,2,12,4,20,0.11,7,Rain,3
2012-10-20,55,42,30,43,36,29,100,88,62,29.83,29.78,29.73,10,6,0,10,2,,0.00,3,Fog,183
2012-10-21,71,56,43,49,44,40,89,69,41,29.90,29.82,29.75,10,10,8,15,7,22,0.00,1,,140
2012-10-22,61,54,46,45,43,41,80,67,52,29.96,29.91,29.87,10,10,10,14,6,20,0.00,5,,33
2012-10-23,64,58,53,59,54,45,100,90,72,29.86,29.76,29.68,10,4,1,12,5,,0.37,8,Rain-Thunderstorm,99
2012-10-24,60,54,46,55,52,43,100,91,77,29.85,29.79,29.75,10,5,1,16,5,23,0.08,7,Rain,343
2012-10-25,46,40,33,43,35,25,100,85,60,30.16,29.84,29.69,10,6,1,20,14,31,0.52,8,Rain-Snow,325
2012-10-26,39,36,32,25,23,20,75,60,48,30.38,30.32,30.19,10,10,10,17,12,25,0.00,5,,266
2012-10-27,43,34,25,25,22,18,88,62,37,30.40,30.35,30.31,10,10,9,12,4,17,0.00,3,,235
2012-10-28,45,36,26,25,23,22,89,65,42,30.37,30.33,30.29,10,9,8,12,2,,0.00,5,,164
2012-10-29,45,36,27,26,24,21,81,62,47,30.34,30.31,30.26,10,10,10,12,3,,0.00,5,,129
2012-10-30,50,36,23,30,22,12,88,60,35,30.26,30.18,30.09,10,10,7,10,3,,0.00,0,,19
2012-10-31,50,34,19,28,19,15,81,55,26,30.09,30.03,29.94,10,10,10,9,4,,0.00,2,,315